Time;durP1;ratioP1;P1;durP2;ratioP2;P2;SDS_P1;SDS_P2;PMS_P1;PMS_P2;Temp;Humidity;BMP_temperature;BMP_pressure;BME280_temperature;BME280_humidity;BME280_pressure;Samples;Min_cycle;Max_cycle;Signal;HPM_P1;HPM_P2
2023/01/19 00:03:49;;;;;;;4.72;2.25;;;;;;;4.25;100.00;100028.16;10461431;28;20123;-62
2023/01/19 00:08:49;;;;;;;1.40;1.25;;;;;;;3.67;100.00;100016.91;10443554;28;20489;-62
2023/01/19 00:13:50;;;;;;;10.77;1.88;;;;;;;3.31;100.00;100021.91;10461274;28;20033;-63
2023/01/19 00:18:51;;;;;;;0.70;0.70;;;;;;;3.21;100.00;100004.19;10443455;28;20029;-66
2023/01/19 00:23:51;;;;;;;3.30;0.90;;;;;;;3.26;100.00;100035.81;10460748;28;20040;-65
2023/01/19 00:28:51;;;;;;;8.82;2.08;;;;;;;3.31;100.00;100033.44;10461195;28;20033;-66
2023/01/19 00:33:52;;;;;;;10.32;2.83;;;;;;;3.29;100.00;100043.50;10442602;28;20036;-66
2023/01/19 00:38:52;;;;;;;10.98;2.03;;;;;;;3.20;100.00;100040.00;10461308;28;20052;-67
2023/01/19 00:43:53;;;;;;;8.73;2.20;;;;;;;3.23;100.00;100047.69;10460563;28;20049;-67
2023/01/19 00:48:53;;;;;;;6.13;2.65;;;;;;;3.25;100.00;100056.38;10459813;28;20485;-67
2023/01/19 00:53:53;;;;;;;4.70;1.95;;;;;;;3.28;100.00;100068.56;10461402;28;20037;-68
2023/01/19 00:58:54;;;;;;;6.53;2.15;;;;;;;3.14;100.00;100066.59;10458940;28;20079;-67
2023/01/19 01:03:54;;;;;;;8.82;2.15;;;;;;;2.96;100.00;100070.28;10459418;28;20037;-67
2023/01/19 01:08:55;;;;;;;4.90;1.95;;;;;;;3.00;100.00;100068.13;10459136;28;20033;-67
2023/01/19 01:13:55;;;;;;;7.13;1.95;;;;;;;2.96;100.00;100069.44;10458253;28;20040;-66
2023/01/19 01:18:56;;;;;;;10.15;2.45;;;;;;;2.99;100.00;100096.69;10458652;28;20037;-69
2023/01/19 01:23:56;;;;;;;2.67;1.30;;;;;;;2.95;100.00;100106.06;10441925;28;20043;-69
2023/01/19 01:28:56;;;;;;;2.95;1.73;;;;;;;2.79;100.00;100101.53;10459174;28;20119;-69
2023/01/19 01:33:57;;;;;;;2.63;1.98;;;;;;;2.80;100.00;100105.88;10457756;28;20112;-69
2023/01/19 01:38:58;;;;;;;4.82;1.25;;;;;;;2.79;100.00;100114.09;10458164;28;20037;-69
2023/01/19 01:44:00;;;;;;;4.28;2.47;;;;;;;2.84;100.00;100119.78;10459870;28;20099;-69
2023/01/19 01:49:09;;;;;;;9.05;2.80;;;;;;;2.90;100.00;100113.75;10458440;28;20021;-68
2023/01/19 01:54:17;;;;;;;1.52;1.40;;;;;;;2.94;100.00;100124.97;10439320;28;20086;-68
2023/01/19 01:59:26;;;;;;;11.82;2.70;;;;;;;2.96;100.00;100126.44;10457739;28;20457;-68
2023/01/19 02:04:28;;;;;;;8.30;2.30;;;;;;;3.01;100.00;100139.31;10440074;28;20059;-69
2023/01/19 02:14:47;;;;;;;2.72;1.95;;;;;;;3.01;100.00;100177.59;10448961;28;20036;-69
2023/01/19 02:19:48;;;;;;;4.57;2.13;;;;;;;2.90;100.00;100172.56;10457599;28;20037;-69
2023/01/19 02:24:48;;;;;;;4.50;1.77;;;;;;;2.73;100.00;100184.25;10456901;28;20532;-69
2023/01/19 02:29:49;;;;;;;2.95;1.30;;;;;;;2.69;100.00;100170.38;10447076;28;20025;-69
2023/01/19 02:34:49;;;;;;;4.18;1.38;;;;;;;2.69;100.00;100177.56;10432568;28;20124;-69
2023/01/19 02:40:00;;;;;;;1.98;1.00;;;;;;;2.66;100.00;100183.25;10431197;28;20064;-69
2023/01/19 02:45:05;;;;;;;1.30;1.10;;;;;;;2.53;100.00;100187.22;10431979;28;20043;-70
2023/01/19 02:50:32;;;;;;;1.42;1.33;;;;;;;2.28;100.00;100158.75;10431762;28;20029;-69
2023/01/19 02:55:33;;;;;;;3.15;1.42;;;;;;;2.19;100.00;100149.03;10447549;28;20029;-69
2023/01/19 03:00:41;;;;;;;12.88;2.03;;;;;;;2.30;100.00;100154.09;10446629;28;20053;-69
2023/01/19 03:06:18;;;;;;;4.93;1.90;;;;;;;2.46;100.00;100139.94;10446382;28;20029;-69
2023/01/19 03:11:18;;;;;;;2.65;1.83;;;;;;;2.56;100.00;100145.97;10429011;28;20049;-69
2023/01/19 03:16:43;;;;;;;10.10;2.70;;;;;;;2.70;100.00;100144.47;10445460;28;20076;-69
2023/01/19 03:21:45;;;;;;;15.90;3.70;;;;;;;2.85;100.00;100148.19;10445102;28;20112;-69
2023/01/19 03:26:54;;;;;;;12.52;2.20;;;;;;;2.94;100.00;100152.53;10428419;28;20166;-69
2023/01/19 03:31:55;;;;;;;24.73;2.70;;;;;;;3.00;100.00;100156.38;10446916;28;20033;-69
2023/01/19 03:37:01;;;;;;;15.02;4.30;;;;;;;3.11;100.00;100157.88;10444234;28;20035;-69
2023/01/19 03:42:04;;;;;;;20.58;3.50;;;;;;;3.26;100.00;100172.28;10444571;28;20489;-69
2023/01/19 03:47:05;;;;;;;13.73;3.72;;;;;;;3.45;100.00;100197.84;10444945;28;20033;-69
2023/01/19 03:52:06;;;;;;;9.40;3.72;;;;;;;3.60;100.00;100193.44;10445698;28;20055;-70
2023/01/19 03:57:06;;;;;;;9.32;4.00;;;;;;;3.66;100.00;100194.63;10444788;28;20039;-69
2023/01/19 04:02:07;;;;;;;19.77;4.85;;;;;;;3.67;100.00;100204.31;10445783;28;20090;-69
2023/01/19 04:07:09;;;;;;;12.18;3.70;;;;;;;3.64;100.00;100202.84;10444399;28;20037;-69
2023/01/19 04:12:09;;;;;;;21.33;2.53;;;;;;;3.60;100.00;100206.00;10444389;28;20087;-69
2023/01/19 04:17:10;;;;;;;14.40;4.00;;;;;;;3.65;100.00;100211.69;10443474;28;20047;-69
2023/01/19 04:22:11;;;;;;;14.93;3.55;;;;;;;3.67;100.00;100207.84;10462365;28;20033;-70
2023/01/19 04:27:13;;;;;;;22.33;4.82;;;;;;;3.73;100.00;100207.19;10463063;28;20492;-69
2023/01/19 04:32:14;;;;;;;5.28;3.13;;;;;;;3.80;100.00;100212.69;10462932;28;20037;-69
2023/01/19 04:37:14;;;;;;;24.05;4.95;;;;;;;3.78;100.00;100208.50;10461557;28;20124;-69
2023/01/19 04:42:15;;;;;;;13.63;3.75;;;;;;;3.70;100.00;100209.34;10460734;28;20064;-69
2023/01/19 04:47:16;;;;;;;13.90;4.93;;;;;;;3.60;100.00;100214.03;10441899;28;20041;-69
2023/01/19 04:52:16;;;;;;;9.13;3.75;;;;;;;3.54;100.00;100212.88;10441918;28;20044;-69
2023/01/19 04:57:17;;;;;;;18.20;5.30;;;;;;;3.52;100.00;100220.25;10459292;28;20115;-69
2023/01/19 05:02:18;;;;;;;24.80;5.43;;;;;;;3.45;100.00;100227.28;10458829;28;20029;-68
2023/01/19 05:07:18;;;;;;;15.48;3.38;;;;;;;3.42;100.00;100227.63;10460018;28;20041;-69
2023/01/19 05:12:19;;;;;;;19.25;4.53;;;;;;;3.32;100.00;100235.81;10459368;28;20116;-68
2023/01/19 05:17:19;;;;;;;27.52;4.55;;;;;;;3.21;100.00;100236.13;10441806;28;20029;-68
2023/01/19 05:22:20;;;;;;;12.98;3.85;;;;;;;3.11;100.00;100238.13;10440537;28;20036;-69
2023/01/19 05:27:21;;;;;;;18.00;4.50;;;;;;;3.02;100.00;100237.28;10458740;28;20044;-68
2023/01/19 05:32:21;;;;;;;11.15;3.65;;;;;;;3.00;100.00;100248.16;10441246;28;20528;-68
2023/01/19 05:37:22;;;;;;;28.48;4.50;;;;;;;2.94;100.00;100239.97;10440358;28;20044;-69
2023/01/19 05:42:22;;;;;;;17.90;4.78;;;;;;;2.88;100.00;100249.47;10458427;28;20132;-69
2023/01/19 05:47:23;;;;;;;14.88;4.57;;;;;;;2.84;100.00;100252.63;10457889;28;20138;-68
2023/01/19 05:52:23;;;;;;;13.65;4.30;;;;;;;2.76;100.00;100258.78;10457751;28;20032;-69
2023/01/19 05:57:24;;;;;;;29.65;3.60;;;;;;;2.76;100.00;100272.16;10457660;28;20041;-68
2023/01/19 06:02:27;;;;;;;14.15;3.92;;;;;;;2.73;100.00;100281.31;10456933;28;20044;-68
2023/01/19 06:07:31;;;;;;;28.48;5.22;;;;;;;2.73;100.00;100281.31;10458287;28;20108;-68
2023/01/19 06:12:31;;;;;;;17.05;2.45;;;;;;;3.05;100.00;100286.94;10457267;28;20071;-69
2023/01/19 06:17:32;;;;;;;12.60;4.25;;;;;;;3.20;100.00;100291.50;10457027;28;20460;-68
2023/01/19 06:22:33;;;;;;;26.25;4.35;;;;;;;3.31;100.00;100290.31;10384268;28;20072;-68
2023/01/19 06:27:33;;;;;;;10.55;3.28;;;;;;;3.35;100.00;100298.84;10448469;28;20037;-68
2023/01/19 06:32:34;;;;;;;10.50;3.40;;;;;;;3.34;100.00;100306.06;10456082;28;20071;-68
2023/01/19 06:37:35;;;;;;;8.23;3.13;;;;;;;3.32;100.00;100310.75;10456597;28;20115;-68
2023/01/19 06:42:36;;;;;;;22.33;5.15;;;;;;;3.32;100.00;100313.44;10458800;28;20393;-68
2023/01/19 06:47:36;;;;;;;18.52;4.70;;;;;;;3.40;100.00;100328.66;10456470;28;20037;-69
2023/01/19 06:52:41;;;;;;;14.80;4.38;;;;;;;3.44;100.00;100330.81;10438779;28;20060;-68
2023/01/19 06:57:41;;;;;;;16.08;4.35;;;;;;;3.39;100.00;100343.88;10458361;28;20036;-68
2023/01/19 07:02:42;;;;;;;11.35;3.00;;;;;;;3.36;100.00;100349.56;10457831;28;20588;-68
2023/01/19 07:07:44;;;;;;;19.45;5.03;;;;;;;3.25;100.00;100352.53;10437766;28;20029;-68
2023/01/19 07:12:46;;;;;;;8.40;2.80;;;;;;;3.10;100.00;100359.53;10424568;28;20037;-68
2023/01/19 07:17:46;;;;;;;10.40;3.05;;;;;;;3.09;100.00;100373.88;10463297;28;20108;-68
2023/01/19 07:22:53;;;;;;;16.25;3.30;;;;;;;3.02;100.00;100379.03;10462698;28;20039;-68
2023/01/19 07:28:00;;;;;;;5.20;2.90;;;;;;;2.93;100.00;100390.69;10430817;28;20040;-68
2023/01/19 07:33:01;;;;;;;11.25;3.45;;;;;;;2.95;100.00;100392.22;10462906;28;20040;-68
2023/01/19 07:38:02;;;;;;;5.18;2.53;;;;;;;3.08;100.00;100398.97;10463291;28;20049;-68
2023/01/19 07:43:03;;;;;;;14.35;3.10;;;;;;;3.15;100.00;100411.53;10444307;28;20591;-68
2023/01/19 07:48:04;;;;;;;13.45;3.83;;;;;;;3.25;100.00;100411.38;10462507;28;20052;-68
2023/01/19 07:53:07;;;;;;;11.38;3.13;;;;;;;3.27;100.00;100412.06;10444439;28;20037;-68
2023/01/19 07:58:08;;;;;;;10.55;3.55;;;;;;;3.36;100.00;100429.00;10462595;28;20505;-68
2023/01/19 08:03:09;;;;;;;25.17;4.35;;;;;;;3.32;100.00;100431.16;10461664;28;20037;-68
2023/01/19 08:08:11;;;;;;;9.55;3.83;;;;;;;3.28;100.00;100440.50;10461551;28;20029;-67
2023/01/19 08:13:11;;;;;;;9.68;4.95;;;;;;;3.13;100.00;100444.81;10461385;28;20120;-68
2023/01/19 08:18:14;;;;;;;17.67;5.47;;;;;;;3.00;100.00;100462.13;10461716;28;20035;-68
2023/01/19 08:23:16;;;;;;;12.23;3.00;;;;;;;3.14;100.00;100462.53;10460465;28;20036;-68
2023/01/19 08:28:17;;;;;;;3.97;2.80;;;;;;;3.84;100.00;100465.78;10443400;28;20033;-68
2023/01/19 08:33:18;;;;;;;8.27;2.20;;;;;;;4.40;100.00;100468.66;10460674;28;20464;-68
2023/01/19 08:38:21;;;;;;;11.75;3.88;;;;;;;4.82;100.00;100473.00;10442170;28;20041;-68
2023/01/19 08:43:22;;;;;;;8.77;2.83;;;;;;;5.20;100.00;100475.88;10460666;28;20051;-68
2023/01/19 08:48:23;;;;;;;21.60;3.17;;;;;;;5.22;100.00;100480.09;10460256;28;20032;-68
2023/01/19 08:53:23;;;;;;;6.63;2.60;;;;;;;5.59;100.00;100475.91;10442271;28;20039;-68
2023/01/19 08:58:24;;;;;;;5.18;2.58;;;;;;;5.98;100.00;100483.13;10460912;28;20049;-68
2023/01/19 09:03:24;;;;;;;13.68;2.63;;;;;;;6.31;100.00;100482.88;10443580;28;20083;-68
2023/01/19 09:08:25;;;;;;;6.25;2.35;;;;;;;6.55;100.00;100474.63;10458752;28;20048;-68
2023/01/19 09:13:26;;;;;;;15.05;3.15;;;;;;;6.84;100.00;100489.16;10441106;28;20037;-68
2023/01/19 09:18:26;;;;;;;8.60;2.80;;;;;;;7.14;100.00;100495.38;10424144;28;20035;-68
2023/01/19 09:23:27;;;;;;;9.02;4.30;;;;;;;7.34;100.00;100501.03;10458197;28;20032;-68
2023/01/19 09:28:28;;;;;;;3.33;2.20;;;;;;;7.50;100.00;100503.56;10440867;28;20056;-68
2023/01/19 09:33:28;;;;;;;6.03;1.98;;;;;;;7.65;100.00;100506.22;10440980;28;20021;-68
2023/01/19 09:38:31;;;;;;;7.45;2.58;;;;;;;7.90;100.00;100509.44;10439484;28;20114;-68
2023/01/19 09:43:44;;;;;;;5.32;2.33;;;;;;;8.12;100.00;100516.53;10457876;28;20048;-68
2023/01/19 09:48:46;;;;;;;5.25;1.50;;;;;;;8.16;100.00;100516.97;10440408;28;20079;-68
2023/01/19 09:53:54;;;;;;;8.73;2.65;;;;;;;8.35;100.00;100523.63;10440921;28;20128;-68
2023/01/19 09:58:54;;;;;;;4.30;1.83;;;;;;;8.39;100.00;100538.41;10458091;28;20083;-68
2023/01/19 10:04:33;;;;;;;3.10;2.05;;;;;;;8.43;100.00;100534.31;10457584;28;20101;-68
2023/01/19 10:09:50;;;;;;;5.30;2.15;;;;;;;8.56;100.00;100537.16;10456405;28;20029;-68
2023/01/19 10:15:21;;;;;;;4.50;1.60;;;;;;;8.84;100.00;100547.16;10440486;28;20037;-68
2023/01/19 10:20:28;;;;;;;5.10;1.58;;;;;;;9.03;100.00;100537.53;10458644;28;20033;-68
2023/01/19 10:25:28;;;;;;;;;;;;;;;9.06;100.00;100551.50;10423103;28;20037;-68
2023/01/19 10:30:29;;;;;;;3.13;1.50;;;;;;;9.03;100.00;100553.72;10456650;28;19916;-68
2023/01/19 10:35:30;;;;;;;2.08;1.70;;;;;;;9.08;100.00;100565.63;10440226;28;20127;-68
2023/01/19 10:40:38;;;;;;;7.25;2.13;;;;;;;9.21;100.00;100555.94;10457546;28;20045;-68
2023/01/19 10:45:39;;;;;;;4.53;1.60;;;;;;;8.91;100.00;100555.31;10438638;28;20094;-68
2023/01/19 10:50:39;;;;;;;3.33;1.90;;;;;;;9.00;100.00;100549.56;10445903;28;20033;-68
2023/01/19 10:55:40;;;;;;;2.55;1.45;;;;;;;9.37;100.00;100563.75;10430867;28;20025;-68
2023/01/19 11:00:41;;;;;;;2.85;1.58;;;;;;;9.49;100.00;100550.53;10446392;28;20381;-68
2023/01/19 11:05:42;;;;;;;8.75;2.00;;;;;;;9.17;100.00;100560.09;10429536;28;20025;-68
2023/01/19 11:10:42;;;;;;;1.30;1.08;;;;;;;7.68;100.00;100557.88;10447255;28;20078;-68
2023/01/19 11:16:03;;;;;;;3.22;1.27;;;;;;;8.70;100.00;100562.38;10430319;28;20075;-68
2023/01/19 11:21:07;;;;;;;5.57;1.95;;;;;;;8.96;100.00;100567.19;10464826;28;20431;-69
2023/01/19 11:26:48;;;;;;;3.47;1.73;;;;;;;9.25;100.00;100560.78;10412649;28;20453;-68
2023/01/19 11:31:48;;;;;;;2.63;1.70;;;;;;;9.55;100.00;100557.84;10462380;28;20116;-68
2023/01/19 11:37:00;;;;;;;1.98;1.30;;;;;;;7.72;100.00;100562.91;10445101;28;20384;-69
2023/01/19 11:42:03;;;;;;;3.60;1.88;;;;;;;7.64;100.00;100564.69;10428095;28;20138;-68
2023/01/19 11:47:05;;;;;;;10.10;1.98;;;;;;;8.60;100.00;100560.00;10444976;28;20389;-68
2023/01/19 11:52:09;;;;;;;9.00;2.45;;;;;;;9.21;100.00;100558.66;10443864;28;20055;-68
2023/01/19 11:57:12;;;;;;;1.42;1.33;;;;;;;9.60;100.00;100541.84;10444793;28;20036;-68
2023/01/19 12:02:23;;;;;;;6.07;2.55;;;;;;;9.85;100.00;100546.75;10460710;28;20033;-68
2023/01/19 12:07:27;;;;;;;7.57;1.90;;;;;;;8.95;100.00;100549.31;10444634;28;20090;-68
2023/01/19 12:12:29;;;;;;;1.17;1.10;;;;;;;7.31;100.00;100549.94;10427699;28;20518;-68
2023/01/19 12:17:32;;;;;;;2.10;2.00;;;;;;;6.51;100.00;100562.09;10426850;28;20044;-68
2023/01/19 12:22:39;;;;;;;3.88;1.55;;;;;;;7.39;100.00;100557.91;10426453;28;20380;-68
2023/01/19 12:27:41;;;;;;;7.57;1.70;;;;;;;8.06;100.00;100551.53;10443057;28;20029;-68
2023/01/19 12:32:42;;;;;;;5.03;1.83;;;;;;;8.69;100.00;100547.22;10426486;28;20029;-68
2023/01/19 12:37:44;;;;;;;3.13;1.70;;;;;;;9.14;100.00;100545.09;10444262;28;20037;-68
2023/01/19 12:42:59;;;;;;;2.40;1.40;;;;;;;9.39;100.00;100550.88;10459622;28;20079;-68
2023/01/19 12:48:01;;;;;;;4.13;1.75;;;;;;;9.48;100.00;100548.88;10441700;28;20028;-68
2023/01/19 12:53:02;;;;;;;7.43;2.47;;;;;;;8.70;100.00;100546.19;10442439;28;20052;-68
2023/01/19 12:58:03;;;;;;;4.65;2.55;;;;;;;8.83;100.00;100553.56;10426830;28;20120;-68
2023/01/19 13:03:24;;;;;;;2.53;1.80;;;;;;;8.74;100.00;100547.50;10459477;28;20025;-68
2023/01/19 13:08:45;;;;;;;2.50;1.63;;;;;;;7.95;100.00;100555.56;10459371;28;20028;-68
2023/01/19 13:13:49;;;;;;;3.13;1.10;;;;;;;6.83;100.00;100552.03;10458330;28;20043;-68
2023/01/19 13:18:53;;;;;;;7.43;1.77;;;;;;;6.54;100.00;100559.03;10458833;28;20057;-68
2023/01/19 13:23:55;;;;;;;16.20;2.65;;;;;;;6.53;100.00;100546.59;10440866;28;20036;-68
2023/01/19 13:28:57;;;;;;;2.58;1.60;;;;;;;6.31;100.00;100555.47;10440860;28;20033;-68
2023/01/19 13:33:58;;;;;;;4.07;1.13;;;;;;;5.83;100.00;100561.75;10427823;28;20078;-68
2023/01/19 13:39:03;;;;;;;1.73;1.35;;;;;;;5.81;100.00;100563.78;10423768;28;20097;-68
2023/01/19 13:44:06;;;;;;;3.10;2.72;;;;;;;6.12;100.00;100562.97;10439321;28;20052;-68
2023/01/19 13:49:23;;;;;;;10.70;2.20;;;;;;;6.07;100.00;100565.38;10439929;28;20033;-68
2023/01/19 13:54:24;;;;;;;1.90;1.70;;;;;;;5.72;100.00;100559.47;10425162;28;20044;-67
2023/01/19 13:59:25;;;;;;;2.92;2.65;;;;;;;5.66;100.00;100570.91;10457454;28;20056;-68
2023/01/19 14:04:30;;;;;;;3.55;1.83;;;;;;;5.67;100.00;100561.81;10457713;28;20033;-68
2023/01/19 14:09:30;;;;;;;2.80;2.28;;;;;;;5.62;100.00;100572.28;10439062;28;20039;-67
2023/01/19 14:14:34;;;;;;;4.13;1.20;;;;;;;5.57;100.00;100577.31;10439835;28;20033;-68
2023/01/19 14:19:51;;;;;;;4.47;1.83;;;;;;;5.40;100.00;100581.06;10438632;28;20033;-68
2023/01/19 14:24:51;;;;;;;;;;;;;;;5.07;100.00;100587.34;10440216;28;20058;-68
2023/01/19 14:29:53;;;;;;;11.05;2.22;;;;;;;4.90;100.00;100594.53;10456856;28;19917;-67
2023/01/19 14:35:02;;;;;;;1.63;1.50;;;;;;;4.72;100.00;100599.22;10438609;28;20465;-68
2023/01/19 14:40:10;;;;;;;3.50;1.55;;;;;;;4.89;100.00;100600.91;10456868;28;20524;-68
2023/01/19 14:45:18;;;;;;;8.30;2.60;;;;;;;5.19;100.00;100606.59;10457947;28;20544;-68
2023/01/19 14:50:24;;;;;;;3.72;1.77;;;;;;;5.12;100.00;100609.13;10438912;28;20097;-68
2023/01/19 14:55:42;;;;;;;5.35;2.50;;;;;;;5.25;100.00;100619.34;10439152;28;20078;-68
2023/01/19 15:00:43;;;;;;;5.38;2.17;;;;;;;4.94;100.00;100623.72;10439768;28;20049;-67
2023/01/19 15:05:44;;;;;;;2.47;1.98;;;;;;;4.75;100.00;100619.50;10438284;28;20439;-68
2023/01/19 15:10:45;;;;;;;1.92;1.73;;;;;;;4.43;100.00;100630.03;10439053;28;20136;-68
2023/01/19 15:15:45;;;;;;;4.03;2.28;;;;;;;4.15;100.00;100636.66;10438077;28;20171;-68
2023/01/19 15:20:46;;;;;;;4.15;2.72;;;;;;;3.91;100.00;100638.22;10437846;28;20112;-68
2023/01/19 15:25:47;;;;;;;12.90;3.05;;;;;;;3.77;100.00;100636.16;10437203;28;20025;-67
2023/01/19 15:30:47;;;;;;;5.35;3.20;;;;;;;3.56;100.00;100633.03;10437014;28;20029;-68
2023/01/19 15:35:48;;;;;;;6.45;3.75;;;;;;;3.35;100.00;100636.06;10458633;28;20111;-67
2023/01/19 15:40:48;;;;;;;3.63;2.90;;;;;;;3.23;100.00;100635.50;10445899;28;20143;-67
2023/01/19 15:45:59;;;;;;;6.85;3.88;;;;;;;3.20;100.00;100643.84;10445515;28;20107;-67
2023/01/19 15:51:00;;;;;;;2.60;2.38;;;;;;;3.17;100.00;100649.50;10466456;28;20090;-68
2023/01/19 15:56:00;;;;;;;10.50;3.10;;;;;;;3.19;100.00;100648.34;10445898;28;20445;-68
2023/01/19 16:01:01;;;;;;;4.95;2.50;;;;;;;3.28;100.00;100651.06;10462597;28;20063;-68
2023/01/19 16:06:01;;;;;;;2.67;2.47;;;;;;;3.32;100.00;100650.63;10461767;28;20112;-68
2023/01/19 16:11:09;;;;;;;6.22;2.72;;;;;;;3.39;100.00;100662.38;10443411;28;20120;-68
2023/01/19 16:16:15;;;;;;;8.35;3.55;;;;;;;3.41;100.00;100656.84;10461513;28;20032;-69
2023/01/19 16:21:16;;;;;;;7.40;3.37;;;;;;;3.45;100.00;100663.59;10443889;28;20025;-71
2023/01/19 16:26:33;;;;;;;10.05;2.67;;;;;;;3.51;100.00;100684.38;10462406;28;20036;-67
2023/01/19 16:31:33;;;;;;;5.40;2.72;;;;;;;3.48;100.00;100682.84;10461082;28;20039;-68
2023/01/19 16:36:35;;;;;;;2.05;1.70;;;;;;;3.40;100.00;100689.97;10443985;28;20342;-67
2023/01/19 16:41:38;;;;;;;2.97;2.25;;;;;;;3.00;100.00;100697.53;10442300;28;20451;-68
2023/01/19 16:46:40;;;;;;;1.60;1.50;;;;;;;2.43;100.00;100701.44;10459912;28;20029;-67
2023/01/19 16:51:40;;;;;;;1.40;1.30;;;;;;;2.24;100.00;100721.09;10460114;28;20031;-67
2023/01/19 16:56:41;;;;;;;8.32;2.08;;;;;;;1.97;100.00;100714.72;10442030;28;20450;-67
2023/01/19 17:01:43;;;;;;;4.03;1.58;;;;;;;1.74;100.00;100718.75;10459817;28;20094;-67
2023/01/19 17:06:45;;;;;;;1.90;1.65;;;;;;;1.67;100.00;100721.16;10459625;28;20033;-67
2023/01/19 17:11:46;;;;;;;1.73;1.40;;;;;;;1.62;100.00;100720.72;10460147;28;20043;-67
2023/01/19 17:16:46;;;;;;;2.20;2.10;;;;;;;1.63;100.00;100722.44;10459705;28;20032;-67
2023/01/19 17:21:47;;;;;;;1.95;1.83;;;;;;;1.73;100.00;100725.06;10458831;28;20025;-67
2023/01/19 17:26:48;;;;;;;2.85;1.70;;;;;;;1.79;100.00;100729.84;10441653;28;20365;-67
2023/01/19 17:31:51;;;;;;;3.28;2.97;;;;;;;1.85;100.00;100747.91;10440845;28;20116;-67
2023/01/19 17:36:52;;;;;;;3.10;2.80;;;;;;;1.98;100.00;100755.63;10457755;28;20108;-67
2023/01/19 17:41:53;;;;;;;2.35;2.15;;;;;;;2.14;100.00;100757.66;10458238;28;20045;-67
2023/01/19 17:46:55;;;;;;;2.15;1.95;;;;;;;2.20;100.00;100760.63;10441416;28;20095;-67
2023/01/19 17:51:55;;;;;;;6.88;2.42;;;;;;;2.26;100.00;100765.34;10457860;28;20036;-67
2023/01/19 17:56:55;;;;;;;3.90;2.17;;;;;;;2.28;100.00;100758.03;10439359;28;20036;-67
2023/01/19 18:01:56;;;;;;;3.78;2.20;;;;;;;2.23;100.00;100762.97;10456868;28;20036;-67
2023/01/19 18:06:56;;;;;;;1.92;1.83;;;;;;;2.23;100.00;100759.47;10461888;28;20079;-68
2023/01/19 18:11:57;;;;;;;1.90;1.77;;;;;;;2.12;100.00;100773.03;10456964;28;20033;-67
2023/01/19 18:16:57;;;;;;;2.47;2.28;;;;;;;1.98;100.00;100772.50;10457333;28;20510;-66
2023/01/19 18:21:58;;;;;;;1.65;1.42;;;;;;;1.99;100.00;100776.84;10439665;28;20037;-66
2023/01/19 18:26:58;;;;;;;2.75;2.55;;;;;;;2.00;100.00;100775.00;10457452;28;20396;-67
2023/01/19 18:31:58;;;;;;;3.33;2.60;;;;;;;1.94;100.00;100768.41;10456284;28;20203;-66
2023/01/19 18:36:59;;;;;;;3.85;3.22;;;;;;;1.94;100.00;100765.75;10456523;28;20107;-66
2023/01/19 18:41:59;;;;;;;4.63;3.00;;;;;;;1.91;100.00;100752.69;10457310;28;20053;-66
2023/01/19 18:47:00;;;;;;;2.72;2.28;;;;;;;1.90;100.00;100767.03;10456510;28;20065;-66
2023/01/19 18:52:02;;;;;;;4.07;2.90;;;;;;;1.82;100.00;100786.47;10457528;28;20029;-67
2023/01/19 18:57:03;;;;;;;3.83;3.40;;;;;;;1.82;100.00;100815.00;10457702;28;20033;-66
2023/01/19 19:02:05;;;;;;;9.25;4.53;;;;;;;1.76;100.00;100839.59;10456827;28;20037;-66
2023/01/19 19:07:06;;;;;;;3.47;3.20;;;;;;;1.58;100.00;100842.94;10456606;28;20036;-67
2023/01/19 19:12:08;;;;;;;3.88;3.13;;;;;;;1.37;100.00;100836.88;10447333;28;20041;-69
2023/01/19 19:17:09;;;;;;;6.45;4.07;;;;;;;1.13;100.00;100838.13;10445977;28;20041;-68
2023/01/19 19:22:09;;;;;;;6.63;3.63;;;;;;;0.96;100.00;100840.63;10446873;28;20385;-67
2023/01/19 19:27:13;;;;;;;3.92;3.63;;;;;;;0.90;100.00;100845.53;10429715;28;20120;-67
2023/01/19 19:32:15;;;;;;;4.00;3.70;;;;;;;0.89;100.00;100846.53;10462586;28;20435;-67
2023/01/19 19:37:21;;;;;;;3.28;2.45;;;;;;;0.93;100.00;100847.09;10444935;28;20382;-67
2023/01/19 19:42:25;;;;;;;8.38;3.78;;;;;;;0.96;100.00;100844.16;10462806;28;20103;-68
2023/01/19 19:47:29;;;;;;;2.55;2.35;;;;;;;1.00;100.00;100848.22;10444672;28;20048;-70
2023/01/19 19:52:30;;;;;;;4.93;4.25;;;;;;;0.96;100.00;100846.81;10462110;28;20037;-68
2023/01/19 19:57:31;;;;;;;4.00;3.70;;;;;;;0.82;100.00;100847.19;10443995;28;20040;-68
2023/01/19 20:02:31;;;;;;;4.80;4.38;;;;;;;0.78;100.00;100853.78;10462195;28;20086;-69
2023/01/19 20:07:32;;;;;;;7.55;5.03;;;;;;;0.78;100.00;100851.94;10445572;28;20078;-70
2023/01/19 20:12:32;;;;;;;9.82;5.28;;;;;;;0.72;100.00;100848.97;10443247;28;20484;-71
2023/01/19 20:17:33;;;;;;;11.07;5.90;;;;;;;0.65;100.00;100857.50;10443198;28;20499;-71
2023/01/19 20:22:37;;;;;;;8.95;4.68;;;;;;;0.67;100.00;100866.22;10464059;28;20506;-71
2023/01/19 20:27:37;;;;;;;6.07;4.45;;;;;;;0.66;100.00;100872.50;10461725;28;20522;-71
2023/01/19 20:32:39;;;;;;;6.25;4.05;;;;;;;0.59;100.00;100878.53;10461490;28;20068;-70
2023/01/19 20:37:39;;;;;;;5.97;3.90;;;;;;;0.58;100.00;100884.84;10425522;28;20477;-71
2023/01/19 20:42:42;;;;;;;7.20;4.75;;;;;;;0.52;100.00;100877.38;10460054;28;20056;-73
2023/01/19 20:47:42;;;;;;;4.30;4.00;;;;;;;0.45;100.00;100882.41;10459286;28;20457;-72
2023/01/19 20:52:43;;;;;;;6.32;5.20;;;;;;;0.42;100.00;100888.00;10459984;28;20064;-71
2023/01/19 20:57:43;;;;;;;3.58;3.35;;;;;;;0.44;100.00;100894.84;10460941;28;20108;-71
2023/01/19 21:02:43;;;;;;;6.90;4.30;;;;;;;0.46;100.00;100900.06;10459442;28;20534;-71
2023/01/19 21:07:44;;;;;;;9.18;5.05;;;;;;;0.49;100.00;100905.13;10440794;28;20567;-68
2023/01/19 21:12:45;;;;;;;8.15;4.70;;;;;;;0.49;100.00;100913.13;10460782;28;20497;-68
2023/01/19 21:17:45;;;;;;;6.20;5.63;;;;;;;0.49;100.00;100913.13;10460762;28;20086;-68
2023/01/19 21:22:46;;;;;;;9.23;5.13;;;;;;;0.52;100.00;100917.34;10442911;28;20151;-68
2023/01/19 21:27:46;;;;;;;5.38;4.85;;;;;;;0.49;100.00;100912.28;10458647;28;20037;-68
2023/01/19 21:32:47;;;;;;;10.27;4.90;;;;;;;0.49;100.00;100917.59;10440072;28;20124;-67
2023/01/19 21:37:48;;;;;;;10.13;4.53;;;;;;;0.49;100.00;100923.78;10440081;28;20032;-67
2023/01/19 21:42:48;;;;;;;4.28;3.70;;;;;;;0.54;100.00;100932.19;10458467;28;20087;-67
2023/01/19 21:47:48;;;;;;;5.60;3.40;;;;;;;0.56;100.00;100951.56;10440616;28;20040;-67
2023/01/19 21:52:49;;;;;;;4.68;3.63;;;;;;;0.57;100.00;100944.41;10457716;28;20167;-68
2023/01/19 21:57:52;;;;;;;2.88;2.67;;;;;;;0.62;100.00;100943.06;10457646;28;20163;-68
2023/01/19 22:02:56;;;;;;;6.50;3.00;;;;;;;0.58;100.00;100936.31;10439776;28;20103;-67
2023/01/19 22:07:57;;;;;;;4.35;3.97;;;;;;;0.56;100.00;100938.25;10457369;28;20033;-67
2023/01/19 22:12:57;;;;;;;2.88;2.40;;;;;;;0.52;100.00;100944.81;10457345;28;20029;-67
2023/01/19 22:17:58;;;;;;;3.70;2.80;;;;;;;0.49;100.00;100965.56;10457175;28;20029;-67
2023/01/19 22:22:58;;;;;;;5.95;4.07;;;;;;;0.56;100.00;100967.56;10439197;28;20029;-67
2023/01/19 22:28:02;;;;;;;6.95;4.50;;;;;;;0.58;100.00;100964.78;10456325;28;20386;-67
2023/01/19 22:33:02;;;;;;;4.65;3.60;;;;;;;0.60;100.00;100968.97;10440381;28;20029;-68
2023/01/19 22:38:03;;;;;;;4.93;3.20;;;;;;;0.72;100.00;100976.91;10458072;28;20036;-68
2023/01/19 22:43:19;;;;;;;5.23;3.20;;;;;;;0.79;100.00;100978.06;10446963;28;20045;-67
2023/01/19 22:48:21;;;;;;;6.07;4.18;;;;;;;0.81;100.00;100984.13;10464354;28;20045;-67
2023/01/19 22:53:21;;;;;;;12.75;7.20;;;;;;;0.78;100.00;100982.56;10447928;28;20384;-68
2023/01/19 22:58:22;;;;;;;7.70;5.55;;;;;;;0.64;100.00;100985.56;10464628;28;20087;-67
2023/01/19 23:03:22;;;;;;;13.70;8.25;;;;;;;0.60;100.00;100990.28;10464877;28;20025;-67
2023/01/19 23:08:23;;;;;;;10.15;9.15;;;;;;;0.65;100.00;100995.25;10446298;28;20116;-67
2023/01/19 23:13:24;;;;;;;10.75;9.60;;;;;;;0.57;100.00;100995.03;10465973;28;20035;-67